sensor_id;sensor_type;location;lat;lon;timestamp;P1;durP1;ratioP1;P2;durP2;ratioP2
10277;SDS011;5184;51.376;7.148;2023-04-15T00:01:29;9.47;;;6.00;;
10277;SDS011;5184;51.376;7.148;2023-04-15T00:03:56;11.20;;;6.67;;
10277;SDS011;5184;51.376;7.148;2023-04-15T00:06:23;8.63;;;6.20;;
10277;SDS011;5184;51.376;7.148;2023-04-15T00:08:49;9.20;;;6.53;;
10277;SDS011;5184;51.376;7.148;2023-04-15T00:11:16;8.47;;;7.10;;
10277;SDS011;5184;51.376;7.148;2023-04-15T00:13:42;9.37;;;7.17;;
10277;SDS011;5184;51.376;7.148;2023-04-15T00:16:09;10.70;;;6.77;;
10277;SDS011;5184;51.376;7.148;2023-04-15T00:18:36;9.00;;;6.90;;
10277;SDS011;5184;51.376;7.148;2023-04-15T00:21:04;9.90;;;6.63;;
10277;SDS011;5184;51.376;7.148;2023-04-15T00:23:30;9.77;;;7.23;;
10277;SDS011;5184;51.376;7.148;2023-04-15T00:25:58;11.93;;;6.80;;
10277;SDS011;5184;51.376;7.148;2023-04-15T00:28:26;9.73;;;6.63;;
10277;SDS011;5184;51.376;7.148;2023-04-15T00:30:53;9.77;;;6.90;;
10277;SDS011;5184;51.376;7.148;2023-04-15T00:33:20;9.40;;;6.70;;
10277;SDS011;5184;51.376;7.148;2023-04-15T00:35:46;9.40;;;6.87;;
10277;SDS011;5184;51.376;7.148;2023-04-15T00:38:14;11.60;;;6.77;;
10277;SDS011;5184;51.376;7.148;2023-04-15T00:40:41;8.47;;;7.37;;
10277;SDS011;5184;51.376;7.148;2023-04-15T00:43:08;14.40;;;8.10;;
10277;SDS011;5184;51.376;7.148;2023-04-15T00:45:36;9.57;;;7.23;;
10277;SDS011;5184;51.376;7.148;2023-04-15T00:48:03;11.43;;;7.07;;
10277;SDS011;5184;51.376;7.148;2023-04-15T00:50:32;9.60;;;7.17;;
10277;SDS011;5184;51.376;7.148;2023-04-15T00:52:57;10.83;;;7.23;;
10277;SDS011;5184;51.376;7.148;2023-04-15T00:55:25;10.67;;;7.30;;
10277;SDS011;5184;51.376;7.148;2023-04-15T00:57:51;11.13;;;7.17;;
10277;SDS011;5184;51.376;7.148;2023-04-15T01:00:18;9.37;;;6.83;;
10277;SDS011;5184;51.376;7.148;2023-04-15T01:02:45;9.57;;;6.83;;
10277;SDS011;5184;51.376;7.148;2023-04-15T01:05:12;11.13;;;7.97;;
10277;SDS011;5184;51.376;7.148;2023-04-15T01:07:39;9.20;;;6.80;;
10277;SDS011;5184;51.376;7.148;2023-04-15T01:10:06;8.63;;;7.30;;
10277;SDS011;5184;51.376;7.148;2023-04-15T01:12:33;8.40;;;7.53;;
10277;SDS011;5184;51.376;7.148;2023-04-15T01:15:00;8.53;;;6.90;;
10277;SDS011;5184;51.376;7.148;2023-04-15T01:17:27;7.77;;;6.77;;
10277;SDS011;5184;51.376;7.148;2023-04-15T01:19:54;11.33;;;7.10;;
10277;SDS011;5184;51.376;7.148;2023-04-15T01:22:21;9.53;;;7.00;;
10277;SDS011;5184;51.376;7.148;2023-04-15T01:24:50;9.63;;;7.03;;
10277;SDS011;5184;51.376;7.148;2023-04-15T01:27:15;9.77;;;7.40;;
10277;SDS011;5184;51.376;7.148;2023-04-15T01:29:42;10.80;;;7.60;;
10277;SDS011;5184;51.376;7.148;2023-04-15T01:32:09;12.23;;;7.87;;
10277;SDS011;5184;51.376;7.148;2023-04-15T01:34:35;10.47;;;7.80;;
10277;SDS011;5184;51.376;7.148;2023-04-15T01:37:02;12.20;;;8.27;;
10277;SDS011;5184;51.376;7.148;2023-04-15T01:39:29;10.83;;;7.70;;
10277;SDS011;5184;51.376;7.148;2023-04-15T01:41:55;9.27;;;7.33;;
10277;SDS011;5184;51.376;7.148;2023-04-15T01:44:22;9.97;;;7.80;;
10277;SDS011;5184;51.376;7.148;2023-04-15T01:46:48;12.33;;;7.60;;
10277;SDS011;5184;51.376;7.148;2023-04-15T01:49:15;9.77;;;7.33;;
10277;SDS011;5184;51.376;7.148;2023-04-15T01:51:42;10.30;;;7.73;;
10277;SDS011;5184;51.376;7.148;2023-04-15T01:54:09;10.57;;;7.57;;
10277;SDS011;5184;51.376;7.148;2023-04-15T01:56:36;11.63;;;7.53;;
10277;SDS011;5184;51.376;7.148;2023-04-15T01:59:03;9.40;;;7.80;;
10277;SDS011;5184;51.376;7.148;2023-04-15T02:01:30;9.10;;;7.77;;
10277;SDS011;5184;51.376;7.148;2023-04-15T02:03:56;12.10;;;7.90;;
10277;SDS011;5184;51.376;7.148;2023-04-15T02:06:23;13.07;;;8.67;;
10277;SDS011;5184;51.376;7.148;2023-04-15T02:08:49;8.53;;;7.43;;
10277;SDS011;5184;51.376;7.148;2023-04-15T02:11:17;10.33;;;7.93;;
10277;SDS011;5184;51.376;7.148;2023-04-15T02:13:44;14.50;;;8.53;;
10277;SDS011;5184;51.376;7.148;2023-04-15T02:16:16;11.80;;;8.97;;
10277;SDS011;5184;51.376;7.148;2023-04-15T02:18:43;10.77;;;8.17;;
10277;SDS011;5184;51.376;7.148;2023-04-15T02:21:09;10.27;;;7.93;;
10277;SDS011;5184;51.376;7.148;2023-04-15T02:23:36;11.07;;;8.90;;
10277;SDS011;5184;51.376;7.148;2023-04-15T02:26:02;12.80;;;9.57;;
10277;SDS011;5184;51.376;7.148;2023-04-15T02:28:29;12.47;;;8.10;;
10277;SDS011;5184;51.376;7.148;2023-04-15T02:30:56;12.20;;;8.70;;
10277;SDS011;5184;51.376;7.148;2023-04-15T02:33:22;12.17;;;8.53;;
10277;SDS011;5184;51.376;7.148;2023-04-15T02:35:49;10.83;;;8.80;;
10277;SDS011;5184;51.376;7.148;2023-04-15T02:38:16;11.67;;;8.73;;
10277;SDS011;5184;51.376;7.148;2023-04-15T02:40:42;9.93;;;8.57;;
10277;SDS011;5184;51.376;7.148;2023-04-15T02:43:09;10.47;;;8.57;;
10277;SDS011;5184;51.376;7.148;2023-04-15T02:45:36;12.67;;;9.27;;
10277;SDS011;5184;51.376;7.148;2023-04-15T02:48:03;10.73;;;9.33;;
10277;SDS011;5184;51.376;7.148;2023-04-15T02:50:29;11.60;;;8.20;;
10277;SDS011;5184;51.376;7.148;2023-04-15T02:52:56;12.47;;;8.73;;
10277;SDS011;5184;51.376;7.148;2023-04-15T02:55:23;12.80;;;9.33;;
10277;SDS011;5184;51.376;7.148;2023-04-15T02:57:49;12.73;;;8.90;;
10277;SDS011;5184;51.376;7.148;2023-04-15T03:00:16;13.00;;;9.77;;
10277;SDS011;5184;51.376;7.148;2023-04-15T03:02:45;11.93;;;10.57;;
10277;SDS011;5184;51.376;7.148;2023-04-15T03:05:13;13.77;;;10.80;;
10277;SDS011;5184;51.376;7.148;2023-04-15T03:07:40;12.47;;;9.27;;
10277;SDS011;5184;51.376;7.148;2023-04-15T03:10:07;13.77;;;9.53;;
10277;SDS011;5184;51.376;7.148;2023-04-15T03:12:35;13.53;;;10.13;;
10277;SDS011;5184;51.376;7.148;2023-04-15T03:15:02;11.63;;;9.27;;
10277;SDS011;5184;51.376;7.148;2023-04-15T03:17:29;14.00;;;9.93;;
10277;SDS011;5184;51.376;7.148;2023-04-15T03:19:55;15.03;;;9.83;;
10277;SDS011;5184;51.376;7.148;2023-04-15T03:22:22;14.47;;;9.93;;
10277;SDS011;5184;51.376;7.148;2023-04-15T03:24:48;14.67;;;9.60;;
10277;SDS011;5184;51.376;7.148;2023-04-15T03:27:16;13.50;;;9.80;;
10277;SDS011;5184;51.376;7.148;2023-04-15T03:29:43;11.60;;;9.17;;
10277;SDS011;5184;51.376;7.148;2023-04-15T03:32:11;15.67;;;9.90;;
10277;SDS011;5184;51.376;7.148;2023-04-15T03:34:38;14.90;;;10.20;;
10277;SDS011;5184;51.376;7.148;2023-04-15T03:37:05;11.87;;;9.27;;
10277;SDS011;5184;51.376;7.148;2023-04-15T03:39:32;12.90;;;10.93;;
10277;SDS011;5184;51.376;7.148;2023-04-15T03:41:58;11.77;;;10.33;;
10277;SDS011;5184;51.376;7.148;2023-04-15T03:44:25;16.80;;;11.30;;
10277;SDS011;5184;51.376;7.148;2023-04-15T03:46:52;15.53;;;10.97;;
10277;SDS011;5184;51.376;7.148;2023-04-15T03:49:18;16.47;;;10.70;;
10277;SDS011;5184;51.376;7.148;2023-04-15T03:51:45;13.20;;;11.10;;
10277;SDS011;5184;51.376;7.148;2023-04-15T03:54:12;13.07;;;11.60;;
10277;SDS011;5184;51.376;7.148;2023-04-15T03:56:40;14.53;;;10.13;;
10277;SDS011;5184;51.376;7.148;2023-04-15T03:59:06;13.83;;;10.40;;
10277;SDS011;5184;51.376;7.148;2023-04-15T04:01:34;14.07;;;11.03;;
10277;SDS011;5184;51.376;7.148;2023-04-15T04:04:02;12.60;;;10.03;;
10277;SDS011;5184;51.376;7.148;2023-04-15T04:06:28;15.90;;;10.87;;
10277;SDS011;5184;51.376;7.148;2023-04-15T04:08:56;14.80;;;10.73;;
10277;SDS011;5184;51.376;7.148;2023-04-15T04:11:24;13.83;;;10.83;;
10277;SDS011;5184;51.376;7.148;2023-04-15T04:13:51;15.23;;;11.47;;
10277;SDS011;5184;51.376;7.148;2023-04-15T04:16:18;16.07;;;11.63;;
10277;SDS011;5184;51.376;7.148;2023-04-15T04:18:46;12.60;;;9.70;;
10277;SDS011;5184;51.376;7.148;2023-04-15T04:21:12;11.63;;;10.43;;
10277;SDS011;5184;51.376;7.148;2023-04-15T04:23:39;13.17;;;9.93;;
10277;SDS011;5184;51.376;7.148;2023-04-15T04:26:06;11.83;;;9.80;;
10277;SDS011;5184;51.376;7.148;2023-04-15T04:28:32;15.57;;;10.63;;
10277;SDS011;5184;51.376;7.148;2023-04-15T04:31:00;14.17;;;10.63;;
10277;SDS011;5184;51.376;7.148;2023-04-15T04:33:26;15.30;;;12.03;;
10277;SDS011;5184;51.376;7.148;2023-04-15T04:35:53;15.23;;;11.77;;
10277;SDS011;5184;51.376;7.148;2023-04-15T04:38:20;13.50;;;11.07;;
10277;SDS011;5184;51.376;7.148;2023-04-15T04:40:47;15.17;;;10.17;;
10277;SDS011;5184;51.376;7.148;2023-04-15T04:43:14;15.87;;;10.80;;
10277;SDS011;5184;51.376;7.148;2023-04-15T04:45:40;15.97;;;10.30;;
10277;SDS011;5184;51.376;7.148;2023-04-15T04:48:08;13.03;;;10.73;;
10277;SDS011;5184;51.376;7.148;2023-04-15T04:50:35;13.40;;;10.50;;
10277;SDS011;5184;51.376;7.148;2023-04-15T04:53:03;16.47;;;10.40;;
10277;SDS011;5184;51.376;7.148;2023-04-15T04:55:29;13.13;;;10.37;;
10277;SDS011;5184;51.376;7.148;2023-04-15T04:57:56;14.87;;;10.17;;
10277;SDS011;5184;51.376;7.148;2023-04-15T05:00:22;14.67;;;11.50;;
10277;SDS011;5184;51.376;7.148;2023-04-15T05:02:49;15.77;;;11.37;;
10277;SDS011;5184;51.376;7.148;2023-04-15T05:05:16;12.87;;;10.40;;
10277;SDS011;5184;51.376;7.148;2023-04-15T05:07:44;16.70;;;11.40;;
10277;SDS011;5184;51.376;7.148;2023-04-15T05:10:10;14.83;;;11.93;;
10277;SDS011;5184;51.376;7.148;2023-04-15T05:12:37;19.90;;;14.33;;
10277;SDS011;5184;51.376;7.148;2023-04-15T05:15:04;20.77;;;16.83;;
10277;SDS011;5184;51.376;7.148;2023-04-15T05:17:31;23.47;;;16.30;;
10277;SDS011;5184;51.376;7.148;2023-04-15T05:19:58;20.77;;;16.83;;
10277;SDS011;5184;51.376;7.148;2023-04-15T05:22:25;26.13;;;17.33;;
10277;SDS011;5184;51.376;7.148;2023-04-15T05:24:52;23.27;;;16.80;;
10277;SDS011;5184;51.376;7.148;2023-04-15T05:27:20;21.40;;;16.80;;
10277;SDS011;5184;51.376;7.148;2023-04-15T05:29:46;22.80;;;17.20;;
10277;SDS011;5184;51.376;7.148;2023-04-15T05:32:13;22.47;;;17.80;;
10277;SDS011;5184;51.376;7.148;2023-04-15T05:34:41;24.07;;;17.17;;
10277;SDS011;5184;51.376;7.148;2023-04-15T05:37:08;22.50;;;17.73;;
10277;SDS011;5184;51.376;7.148;2023-04-15T05:39:36;24.07;;;18.60;;
10277;SDS011;5184;51.376;7.148;2023-04-15T05:42:02;23.97;;;18.00;;
10277;SDS011;5184;51.376;7.148;2023-04-15T05:44:30;23.47;;;17.23;;
10277;SDS011;5184;51.376;7.148;2023-04-15T05:46:56;23.33;;;18.30;;
10277;SDS011;5184;51.376;7.148;2023-04-15T05:49:23;25.23;;;18.90;;
10277;SDS011;5184;51.376;7.148;2023-04-15T05:51:50;21.87;;;17.50;;
10277;SDS011;5184;51.376;7.148;2023-04-15T05:54:16;23.87;;;18.30;;
10277;SDS011;5184;51.376;7.148;2023-04-15T05:56:43;25.00;;;18.20;;
10277;SDS011;5184;51.376;7.148;2023-04-15T05:59:10;24.00;;;18.97;;
10277;SDS011;5184;51.376;7.148;2023-04-15T06:01:36;23.77;;;19.47;;
10277;SDS011;5184;51.376;7.148;2023-04-15T06:04:03;27.07;;;19.33;;
10277;SDS011;5184;51.376;7.148;2023-04-15T06:06:29;23.00;;;18.93;;
10277;SDS011;5184;51.376;7.148;2023-04-15T06:08:57;24.67;;;18.70;;
10277;SDS011;5184;51.376;7.148;2023-04-15T06:11:24;22.07;;;18.00;;
10277;SDS011;5184;51.376;7.148;2023-04-15T06:13:52;22.33;;;18.17;;
10277;SDS011;5184;51.376;7.148;2023-04-15T06:16:18;22.57;;;17.53;;
10277;SDS011;5184;51.376;7.148;2023-04-15T06:18:45;22.53;;;17.07;;
10277;SDS011;5184;51.376;7.148;2023-04-15T06:21:11;19.43;;;16.13;;
10277;SDS011;5184;51.376;7.148;2023-04-15T06:23:38;19.63;;;15.27;;
10277;SDS011;5184;51.376;7.148;2023-04-15T06:26:05;22.73;;;16.43;;
10277;SDS011;5184;51.376;7.148;2023-04-15T06:28:31;18.73;;;15.43;;
10277;SDS011;5184;51.376;7.148;2023-04-15T06:30:58;23.57;;;16.60;;
10277;SDS011;5184;51.376;7.148;2023-04-15T06:33:25;20.37;;;15.87;;
10277;SDS011;5184;51.376;7.148;2023-04-15T06:35:52;19.00;;;14.43;;
10277;SDS011;5184;51.376;7.148;2023-04-15T06:38:19;19.70;;;15.53;;
10277;SDS011;5184;51.376;7.148;2023-04-15T06:40:46;20.83;;;15.53;;
10277;SDS011;5184;51.376;7.148;2023-04-15T06:43:14;18.20;;;14.47;;
10277;SDS011;5184;51.376;7.148;2023-04-15T06:45:41;18.40;;;15.40;;
10277;SDS011;5184;51.376;7.148;2023-04-15T06:48:09;19.23;;;15.50;;
10277;SDS011;5184;51.376;7.148;2023-04-15T06:50:35;17.23;;;15.37;;
10277;SDS011;5184;51.376;7.148;2023-04-15T06:53:02;15.73;;;14.10;;
10277;SDS011;5184;51.376;7.148;2023-04-15T06:55:28;16.87;;;15.03;;
10277;SDS011;5184;51.376;7.148;2023-04-15T06:57:55;17.40;;;14.43;;
10277;SDS011;5184;51.376;7.148;2023-04-15T07:00:22;18.57;;;13.83;;
10277;SDS011;5184;51.376;7.148;2023-04-15T07:02:49;16.13;;;14.20;;
10277;SDS011;5184;51.376;7.148;2023-04-15T07:05:16;16.37;;;14.57;;
10277;SDS011;5184;51.376;7.148;2023-04-15T07:07:42;17.57;;;14.17;;
10277;SDS011;5184;51.376;7.148;2023-04-15T07:10:09;19.37;;;15.73;;
10277;SDS011;5184;51.376;7.148;2023-04-15T07:12:36;16.17;;;14.47;;
10277;SDS011;5184;51.376;7.148;2023-04-15T07:15:03;21.70;;;16.47;;
10277;SDS011;5184;51.376;7.148;2023-04-15T07:17:30;22.33;;;16.97;;
10277;SDS011;5184;51.376;7.148;2023-04-15T07:19:57;18.90;;;15.73;;
10277;SDS011;5184;51.376;7.148;2023-04-15T07:22:23;21.17;;;16.13;;
10277;SDS011;5184;51.376;7.148;2023-04-15T07:24:51;19.67;;;16.43;;
10277;SDS011;5184;51.376;7.148;2023-04-15T07:27:18;18.80;;;15.30;;
10277;SDS011;5184;51.376;7.148;2023-04-15T07:29:45;18.30;;;15.70;;
10277;SDS011;5184;51.376;7.148;2023-04-15T07:32:12;18.93;;;16.90;;
10277;SDS011;5184;51.376;7.148;2023-04-15T07:34:38;18.83;;;15.97;;
10277;SDS011;5184;51.376;7.148;2023-04-15T07:37:05;17.93;;;15.93;;
10277;SDS011;5184;51.376;7.148;2023-04-15T07:39:32;19.73;;;17.10;;
10277;SDS011;5184;51.376;7.148;2023-04-15T07:42:00;17.73;;;15.37;;
10277;SDS011;5184;51.376;7.148;2023-04-15T07:44:27;17.57;;;13.13;;
10277;SDS011;5184;51.376;7.148;2023-04-15T07:46:54;18.40;;;15.70;;
10277;SDS011;5184;51.376;7.148;2023-04-15T07:49:21;18.23;;;15.80;;
10277;SDS011;5184;51.376;7.148;2023-04-15T07:51:49;16.97;;;14.27;;
10277;SDS011;5184;51.376;7.148;2023-04-15T07:54:16;15.80;;;14.10;;
10277;SDS011;5184;51.376;7.148;2023-04-15T07:56:43;16.17;;;13.23;;
10277;SDS011;5184;51.376;7.148;2023-04-15T07:59:09;15.03;;;13.20;;
10277;SDS011;5184;51.376;7.148;2023-04-15T08:01:36;14.97;;;13.37;;
10277;SDS011;5184;51.376;7.148;2023-04-15T08:04:03;13.63;;;12.23;;
10277;SDS011;5184;51.376;7.148;2023-04-15T08:06:29;15.40;;;12.77;;
10277;SDS011;5184;51.376;7.148;2023-04-15T08:08:56;15.97;;;12.50;;
10277;SDS011;5184;51.376;7.148;2023-04-15T08:11:24;15.77;;;13.70;;
10277;SDS011;5184;51.376;7.148;2023-04-15T08:13:51;15.20;;;12.83;;
10277;SDS011;5184;51.376;7.148;2023-04-15T08:16:19;14.27;;;12.47;;
10277;SDS011;5184;51.376;7.148;2023-04-15T08:18:46;14.33;;;12.77;;
10277;SDS011;5184;51.376;7.148;2023-04-15T08:21:12;13.37;;;11.97;;
10277;SDS011;5184;51.376;7.148;2023-04-15T08:23:38;14.67;;;12.17;;
10277;SDS011;5184;51.376;7.148;2023-04-15T08:26:05;13.47;;;12.07;;
10277;SDS011;5184;51.376;7.148;2023-04-15T08:28:33;12.83;;;11.53;;
10277;SDS011;5184;51.376;7.148;2023-04-15T08:31:00;11.97;;;10.77;;
10277;SDS011;5184;51.376;7.148;2023-04-15T08:33:28;12.80;;;11.37;;
10277;SDS011;5184;51.376;7.148;2023-04-15T08:35:55;14.57;;;11.57;;
10277;SDS011;5184;51.376;7.148;2023-04-15T08:38:22;13.87;;;10.80;;
10277;SDS011;5184;51.376;7.148;2023-04-15T08:40:48;12.97;;;10.37;;
10277;SDS011;5184;51.376;7.148;2023-04-15T08:43:20;9.70;;;8.70;;
10277;SDS011;5184;51.376;7.148;2023-04-15T08:45:46;10.30;;;9.23;;
10277;SDS011;5184;51.376;7.148;2023-04-15T08:48:14;8.40;;;7.00;;
10277;SDS011;5184;51.376;7.148;2023-04-15T08:50:39;6.70;;;5.83;;
10277;SDS011;5184;51.376;7.148;2023-04-15T08:53:06;6.90;;;5.90;;
10277;SDS011;5184;51.376;7.148;2023-04-15T08:55:34;6.53;;;5.93;;
10277;SDS011;5184;51.376;7.148;2023-04-15T08:58:01;6.60;;;5.70;;
10277;SDS011;5184;51.376;7.148;2023-04-15T09:00:28;7.60;;;6.00;;
10277;SDS011;5184;51.376;7.148;2023-04-15T09:02:55;6.57;;;5.83;;
10277;SDS011;5184;51.376;7.148;2023-04-15T09:05:21;6.07;;;5.43;;
10277;SDS011;5184;51.376;7.148;2023-04-15T09:07:49;6.20;;;5.60;;
10277;SDS011;5184;51.376;7.148;2023-04-15T09:10:16;6.30;;;5.70;;
10277;SDS011;5184;51.376;7.148;2023-04-15T09:12:42;6.60;;;5.67;;
10277;SDS011;5184;51.376;7.148;2023-04-15T09:15:10;6.70;;;6.00;;
10277;SDS011;5184;51.376;7.148;2023-04-15T09:17:36;9.03;;;6.90;;
10277;SDS011;5184;51.376;7.148;2023-04-15T09:20:09;6.33;;;5.63;;
10277;SDS011;5184;51.376;7.148;2023-04-15T09:22:35;6.63;;;5.90;;
10277;SDS011;5184;51.376;7.148;2023-04-15T09:25:02;7.83;;;6.03;;
10277;SDS011;5184;51.376;7.148;2023-04-15T09:27:30;6.80;;;6.10;;
10277;SDS011;5184;51.376;7.148;2023-04-15T09:29:57;6.97;;;5.67;;
10277;SDS011;5184;51.376;7.148;2023-04-15T09:32:24;16.73;;;8.27;;
10277;SDS011;5184;51.376;7.148;2023-04-15T09:34:50;6.63;;;6.03;;
10277;SDS011;5184;51.376;7.148;2023-04-15T09:37:18;7.17;;;5.93;;
10277;SDS011;5184;51.376;7.148;2023-04-15T09:39:46;6.00;;;5.40;;
10277;SDS011;5184;51.376;7.148;2023-04-15T09:42:14;5.17;;;4.67;;
10277;SDS011;5184;51.376;7.148;2023-04-15T09:44:40;5.33;;;4.53;;
10277;SDS011;5184;51.376;7.148;2023-04-15T09:47:08;4.73;;;4.10;;
10277;SDS011;5184;51.376;7.148;2023-04-15T09:49:34;4.80;;;4.40;;
10277;SDS011;5184;51.376;7.148;2023-04-15T09:52:01;5.13;;;4.63;;
10277;SDS011;5184;51.376;7.148;2023-04-15T09:54:32;5.50;;;4.37;;
10277;SDS011;5184;51.376;7.148;2023-04-15T09:57:03;5.80;;;4.93;;
10277;SDS011;5184;51.376;7.148;2023-04-15T09:59:26;5.63;;;5.13;;
10277;SDS011;5184;51.376;7.148;2023-04-15T10:01:53;6.27;;;5.27;;
10277;SDS011;5184;51.376;7.148;2023-04-15T10:04:20;5.50;;;5.00;;
10277;SDS011;5184;51.376;7.148;2023-04-15T10:06:46;6.10;;;5.50;;
10277;SDS011;5184;51.376;7.148;2023-04-15T10:09:13;6.13;;;5.40;;
10277;SDS011;5184;51.376;7.148;2023-04-15T10:11:39;6.30;;;5.70;;
10277;SDS011;5184;51.376;7.148;2023-04-15T10:14:06;5.90;;;5.30;;
10277;SDS011;5184;51.376;7.148;2023-04-15T10:16:33;6.03;;;5.33;;
10277;SDS011;5184;51.376;7.148;2023-04-15T10:19:01;6.73;;;5.40;;
10277;SDS011;5184;51.376;7.148;2023-04-15T10:21:28;5.80;;;5.20;;
10277;SDS011;5184;51.376;7.148;2023-04-15T10:23:55;6.13;;;5.63;;
10277;SDS011;5184;51.376;7.148;2023-04-15T10:26:22;5.93;;;5.33;;
10277;SDS011;5184;51.376;7.148;2023-04-15T10:28:50;6.53;;;5.93;;
10277;SDS011;5184;51.376;7.148;2023-04-15T10:31:16;6.13;;;5.53;;
10277;SDS011;5184;51.376;7.148;2023-04-15T10:33:43;6.60;;;6.00;;
10277;SDS011;5184;51.376;7.148;2023-04-15T10:36:10;6.60;;;5.80;;
10277;SDS011;5184;51.376;7.148;2023-04-15T10:38:38;6.80;;;6.10;;
10277;SDS011;5184;51.376;7.148;2023-04-15T10:41:11;7.97;;;7.00;;
10277;SDS011;5184;51.376;7.148;2023-04-15T10:43:44;6.87;;;6.17;;
10277;SDS011;5184;51.376;7.148;2023-04-15T10:46:11;7.20;;;6.50;;
10277;SDS011;5184;51.376;7.148;2023-04-15T10:48:38;7.77;;;6.70;;
10277;SDS011;5184;51.376;7.148;2023-04-15T10:51:05;7.60;;;6.00;;
10277;SDS011;5184;51.376;7.148;2023-04-15T10:53:32;6.43;;;5.83;;
10277;SDS011;5184;51.376;7.148;2023-04-15T10:55:58;7.33;;;6.57;;
10277;SDS011;5184;51.376;7.148;2023-04-15T10:58:26;7.53;;;6.63;;
10277;SDS011;5184;51.376;7.148;2023-04-15T11:00:53;5.87;;;5.27;;
10277;SDS011;5184;51.376;7.148;2023-04-15T11:05:58;6.37;;;5.77;;
10277;SDS011;5184;51.376;7.148;2023-04-15T11:11:03;6.43;;;5.83;;
10277;SDS011;5184;51.376;7.148;2023-04-15T11:13:31;5.70;;;5.20;;
10277;SDS011;5184;51.376;7.148;2023-04-15T11:15:59;6.03;;;5.43;;
10277;SDS011;5184;51.376;7.148;2023-04-15T11:18:26;5.63;;;5.03;;
10277;SDS011;5184;51.376;7.148;2023-04-15T11:20:53;6.13;;;5.13;;
10277;SDS011;5184;51.376;7.148;2023-04-15T11:23:30;5.80;;;5.20;;
10277;SDS011;5184;51.376;7.148;2023-04-15T11:25:56;6.53;;;5.80;;
10277;SDS011;5184;51.376;7.148;2023-04-15T11:28:25;5.97;;;5.30;;
10277;SDS011;5184;51.376;7.148;2023-04-15T11:30:51;6.00;;;5.40;;
10277;SDS011;5184;51.376;7.148;2023-04-15T11:33:18;7.00;;;6.30;;
10277;SDS011;5184;51.376;7.148;2023-04-15T11:35:45;6.27;;;5.67;;
10277;SDS011;5184;51.376;7.148;2023-04-15T11:38:12;6.53;;;5.83;;
10277;SDS011;5184;51.376;7.148;2023-04-15T11:40:40;6.10;;;5.50;;
10277;SDS011;5184;51.376;7.148;2023-04-15T11:43:07;6.57;;;5.97;;
10277;SDS011;5184;51.376;7.148;2023-04-15T11:45:33;7.87;;;7.17;;
10277;SDS011;5184;51.376;7.148;2023-04-15T11:48:04;7.17;;;6.33;;
10277;SDS011;5184;51.376;7.148;2023-04-15T11:50:31;7.20;;;6.37;;
10277;SDS011;5184;51.376;7.148;2023-04-15T11:52:59;8.20;;;6.87;;
10277;SDS011;5184;51.376;7.148;2023-04-15T11:55:25;7.30;;;6.60;;
10277;SDS011;5184;51.376;7.148;2023-04-15T11:58:25;7.27;;;6.57;;
10277;SDS011;5184;51.376;7.148;2023-04-15T12:00:34;6.90;;;6.20;;
10277;SDS011;5184;51.376;7.148;2023-04-15T12:08:46;7.47;;;6.30;;
10277;SDS011;5184;51.376;7.148;2023-04-15T12:11:02;6.97;;;6.27;;
10277;SDS011;5184;51.376;7.148;2023-04-15T12:13:29;5.97;;;5.43;;
10277;SDS011;5184;51.376;7.148;2023-04-15T12:15:55;6.20;;;5.60;;
10277;SDS011;5184;51.376;7.148;2023-04-15T12:18:22;6.87;;;6.17;;
10277;SDS011;5184;51.376;7.148;2023-04-15T12:20:48;7.73;;;6.93;;
10277;SDS011;5184;51.376;7.148;2023-04-15T12:23:18;9.50;;;7.00;;
10277;SDS011;5184;51.376;7.148;2023-04-15T12:25:42;8.43;;;7.50;;
10277;SDS011;5184;51.376;7.148;2023-04-15T12:28:10;8.17;;;7.27;;
10277;SDS011;5184;51.376;7.148;2023-04-15T12:30:36;8.77;;;7.13;;
10277;SDS011;5184;51.376;7.148;2023-04-15T12:33:02;8.03;;;6.40;;
10277;SDS011;5184;51.376;7.148;2023-04-15T12:35:29;8.23;;;5.60;;
10277;SDS011;5184;51.376;7.148;2023-04-15T12:37:56;6.80;;;5.90;;
10277;SDS011;5184;51.376;7.148;2023-04-15T12:40:22;6.87;;;6.17;;
10277;SDS011;5184;51.376;7.148;2023-04-15T12:42:49;7.20;;;6.37;;
10277;SDS011;5184;51.376;7.148;2023-04-15T12:45:16;6.30;;;5.67;;
10277;SDS011;5184;51.376;7.148;2023-04-15T12:47:42;6.47;;;5.87;;
10277;SDS011;5184;51.376;7.148;2023-04-15T12:50:10;6.50;;;5.50;;
10277;SDS011;5184;51.376;7.148;2023-04-15T12:52:36;8.47;;;6.00;;
10277;SDS011;5184;51.376;7.148;2023-04-15T12:55:03;5.97;;;5.37;;
10277;SDS011;5184;51.376;7.148;2023-04-15T12:57:30;5.97;;;5.33;;
10277;SDS011;5184;51.376;7.148;2023-04-15T12:59:56;6.33;;;5.73;;
10277;SDS011;5184;51.376;7.148;2023-04-15T13:02:23;5.47;;;4.77;;
10277;SDS011;5184;51.376;7.148;2023-04-15T13:04:50;5.47;;;4.70;;
10277;SDS011;5184;51.376;7.148;2023-04-15T13:07:18;8.77;;;5.10;;
10277;SDS011;5184;51.376;7.148;2023-04-15T13:09:44;6.50;;;5.00;;
10277;SDS011;5184;51.376;7.148;2023-04-15T13:12:12;6.03;;;5.20;;
10277;SDS011;5184;51.376;7.148;2023-04-15T13:14:39;6.17;;;5.13;;
10277;SDS011;5184;51.376;7.148;2023-04-15T13:17:06;5.37;;;4.87;;
10277;SDS011;5184;51.376;7.148;2023-04-15T13:19:32;5.53;;;4.87;;
10277;SDS011;5184;51.376;7.148;2023-04-15T13:22:00;6.73;;;5.67;;
10277;SDS011;5184;51.376;7.148;2023-04-15T13:24:28;5.80;;;5.20;;
10277;SDS011;5184;51.376;7.148;2023-04-15T13:26:56;6.73;;;5.47;;
10277;SDS011;5184;51.376;7.148;2023-04-15T13:29:22;5.30;;;4.80;;
10277;SDS011;5184;51.376;7.148;2023-04-15T13:31:49;6.00;;;5.40;;
10277;SDS011;5184;51.376;7.148;2023-04-15T13:34:17;6.63;;;5.20;;
10277;SDS011;5184;51.376;7.148;2023-04-15T13:36:44;5.43;;;4.70;;
10277;SDS011;5184;51.376;7.148;2023-04-15T13:39:11;5.27;;;4.50;;
10277;SDS011;5184;51.376;7.148;2023-04-15T13:41:38;5.53;;;4.93;;
10277;SDS011;5184;51.376;7.148;2023-04-15T13:44:04;5.33;;;4.77;;
10277;SDS011;5184;51.376;7.148;2023-04-15T13:46:31;5.43;;;4.50;;
10277;SDS011;5184;51.376;7.148;2023-04-15T13:48:57;5.80;;;5.27;;
10277;SDS011;5184;51.376;7.148;2023-04-15T13:51:24;6.27;;;5.43;;
10277;SDS011;5184;51.376;7.148;2023-04-15T13:53:52;8.00;;;6.00;;
10277;SDS011;5184;51.376;7.148;2023-04-15T13:56:19;7.07;;;6.10;;
10277;SDS011;5184;51.376;7.148;2023-04-15T13:58:46;6.10;;;5.53;;
10277;SDS011;5184;51.376;7.148;2023-04-15T14:01:13;6.57;;;5.77;;
10277;SDS011;5184;51.376;7.148;2023-04-15T14:03:39;7.13;;;5.73;;
10277;SDS011;5184;51.376;7.148;2023-04-15T14:06:07;6.70;;;6.10;;
10277;SDS011;5184;51.376;7.148;2023-04-15T14:08:34;6.60;;;5.37;;
10277;SDS011;5184;51.376;7.148;2023-04-15T14:11:01;5.83;;;5.30;;
10277;SDS011;5184;51.376;7.148;2023-04-15T14:13:28;5.37;;;4.83;;
10277;SDS011;5184;51.376;7.148;2023-04-15T14:15:55;6.47;;;5.13;;
10277;SDS011;5184;51.376;7.148;2023-04-15T14:18:21;6.07;;;5.33;;
10277;SDS011;5184;51.376;7.148;2023-04-15T14:20:49;5.80;;;5.10;;
10277;SDS011;5184;51.376;7.148;2023-04-15T14:23:16;6.00;;;5.40;;
10277;SDS011;5184;51.376;7.148;2023-04-15T14:25:44;8.57;;;5.97;;
10277;SDS011;5184;51.376;7.148;2023-04-15T14:28:10;6.83;;;6.13;;
10277;SDS011;5184;51.376;7.148;2023-04-15T14:30:37;9.00;;;6.13;;
10277;SDS011;5184;51.376;7.148;2023-04-15T14:33:04;6.00;;;5.43;;
10277;SDS011;5184;51.376;7.148;2023-04-15T14:35:31;6.40;;;5.57;;
10277;SDS011;5184;51.376;7.148;2023-04-15T14:37:58;6.20;;;5.60;;
10277;SDS011;5184;51.376;7.148;2023-04-15T14:40:26;6.20;;;5.60;;
10277;SDS011;5184;51.376;7.148;2023-04-15T14:42:53;8.70;;;6.10;;
10277;SDS011;5184;51.376;7.148;2023-04-15T14:45:19;7.30;;;5.87;;
10277;SDS011;5184;51.376;7.148;2023-04-15T14:47:46;6.80;;;6.13;;
10277;SDS011;5184;51.376;7.148;2023-04-15T14:50:12;7.87;;;6.40;;
10277;SDS011;5184;51.376;7.148;2023-04-15T14:52:40;7.83;;;5.87;;
10277;SDS011;5184;51.376;7.148;2023-04-15T14:55:07;6.60;;;6.00;;
10277;SDS011;5184;51.376;7.148;2023-04-15T14:57:38;6.67;;;5.40;;
10277;SDS011;5184;51.376;7.148;2023-04-15T15:00:05;6.50;;;5.80;;